sensor_id;sensor_type;location;lat;lon;timestamp;pressure;altitude;pressure_sealevel;temperature;humidity
60069;BME280;45945;53.350;55.922;2022-08-20T00:00:23;101378.53;;;11.46;71.02
60069;BME280;45945;53.350;55.922;2022-08-20T00:01:25;101365.97;;;11.39;71.09
60069;BME280;45945;53.350;55.922;2022-08-20T00:02:26;101379.41;;;11.47;70.98
60069;BME280;45945;53.350;55.922;2022-08-20T00:03:30;101369.84;;;11.47;70.75
60069;BME280;45945;53.350;55.922;2022-08-20T00:04:31;101370.69;;;11.46;71.06
60069;BME280;45945;53.350;55.922;2022-08-20T00:05:36;101370.53;;;11.43;70.93
60069;BME280;45945;53.350;55.922;2022-08-20T00:06:38;101367.00;;;11.43;71.39
60069;BME280;45945;53.350;55.922;2022-08-20T00:07:40;101362.22;;;11.52;71.16
60069;BME280;45945;53.350;55.922;2022-08-20T00:08:42;101363.03;;;11.51;70.54
60069;BME280;45945;53.350;55.922;2022-08-20T00:09:43;101364.09;;;11.56;70.54
60069;BME280;45945;53.350;55.922;2022-08-20T00:10:46;101366.59;;;11.53;70.93
60069;BME280;45945;53.350;55.922;2022-08-20T00:11:47;101362.28;;;11.53;71.23
60069;BME280;45945;53.350;55.922;2022-08-20T00:12:49;101363.16;;;11.54;70.92
60069;BME280;45945;53.350;55.922;2022-08-20T00:13:53;101366.78;;;11.58;70.62
60069;BME280;45945;53.350;55.922;2022-08-20T00:14:55;101358.13;;;11.59;70.44
60069;BME280;45945;53.350;55.922;2022-08-20T00:15:56;101361.34;;;11.53;70.48
60069;BME280;45945;53.350;55.922;2022-08-20T00:16:57;101359.72;;;11.55;70.48
60069;BME280;45945;53.350;55.922;2022-08-20T00:18:01;101364.97;;;11.55;70.70
60069;BME280;45945;53.350;55.922;2022-08-20T00:19:06;101364.44;;;11.64;70.26
60069;BME280;45945;53.350;55.922;2022-08-20T00:20:10;101364.38;;;11.62;70.31
60069;BME280;45945;53.350;55.922;2022-08-20T00:21:15;101370.34;;;11.58;70.54
60069;BME280;45945;53.350;55.922;2022-08-20T00:22:16;101372.09;;;11.59;70.82
60069;BME280;45945;53.350;55.922;2022-08-20T00:23:18;101361.50;;;11.56;70.93
60069;BME280;45945;53.350;55.922;2022-08-20T00:24:19;101369.41;;;11.58;70.94
60069;BME280;45945;53.350;55.922;2022-08-20T00:25:21;101372.16;;;11.61;70.61
60069;BME280;45945;53.350;55.922;2022-08-20T00:26:23;101373.22;;;11.64;70.88
60069;BME280;45945;53.350;55.922;2022-08-20T00:27:24;101381.06;;;11.64;70.59
60069;BME280;45945;53.350;55.922;2022-08-20T00:28:26;101372.81;;;11.55;71.36
60069;BME280;45945;53.350;55.922;2022-08-20T00:29:27;101376.38;;;11.57;71.28
60069;BME280;45945;53.350;55.922;2022-08-20T00:30:28;101372.03;;;11.58;71.26
60069;BME280;45945;53.350;55.922;2022-08-20T00:31:30;101373.16;;;11.43;71.70
60069;BME280;45945;53.350;55.922;2022-08-20T00:32:31;101377.78;;;11.49;71.68
60069;BME280;45945;53.350;55.922;2022-08-20T00:33:42;101370.47;;;11.22;72.70
60069;BME280;45945;53.350;55.922;2022-08-20T00:34:43;101384.50;;;11.24;72.71
60069;BME280;45945;53.350;55.922;2022-08-20T00:35:48;101381.13;;;11.27;72.38
60069;BME280;45945;53.350;55.922;2022-08-20T00:36:51;101378.81;;;11.33;72.18
60069;BME280;45945;53.350;55.922;2022-08-20T00:37:52;101379.13;;;11.41;71.74
60069;BME280;45945;53.350;55.922;2022-08-20T00:38:54;101381.28;;;11.49;71.10
60069;BME280;45945;53.350;55.922;2022-08-20T00:39:55;101384.44;;;11.42;71.46
60069;BME280;45945;53.350;55.922;2022-08-20T00:40:58;101383.78;;;11.46;71.39
60069;BME280;45945;53.350;55.922;2022-08-20T00:42:00;101379.00;;;11.38;71.50
60069;BME280;45945;53.350;55.922;2022-08-20T00:43:03;101387.31;;;11.29;72.01
60069;BME280;45945;53.350;55.922;2022-08-20T00:44:31;101388.38;;;11.32;72.00
60069;BME280;45945;53.350;55.922;2022-08-20T00:45:34;101391.06;;;11.34;71.74
60069;BME280;45945;53.350;55.922;2022-08-20T00:46:35;101390.22;;;11.35;72.07
60069;BME280;45945;53.350;55.922;2022-08-20T00:47:37;101395.91;;;11.25;72.58
60069;BME280;45945;53.350;55.922;2022-08-20T00:48:49;101397.59;;;11.24;72.53
60069;BME280;45945;53.350;55.922;2022-08-20T00:49:50;101396.56;;;11.21;72.34
60069;BME280;45945;53.350;55.922;2022-08-20T00:50:52;101398.09;;;10.97;73.32
60069;BME280;45945;53.350;55.922;2022-08-20T00:52:01;101402.34;;;11.13;72.86
60069;BME280;45945;53.350;55.922;2022-08-20T00:53:04;101407.91;;;11.21;72.23
60069;BME280;45945;53.350;55.922;2022-08-20T00:54:26;101405.38;;;11.23;71.95
60069;BME280;45945;53.350;55.922;2022-08-20T00:55:29;101410.31;;;11.16;72.38
60069;BME280;45945;53.350;55.922;2022-08-20T00:56:31;101402.66;;;11.02;72.76
60069;BME280;45945;53.350;55.922;2022-08-20T00:57:40;101399.97;;;11.00;72.35
60069;BME280;45945;53.350;55.922;2022-08-20T00:58:43;101400.69;;;10.97;72.81
60069;BME280;45945;53.350;55.922;2022-08-20T00:59:45;101398.34;;;11.02;72.43
60069;BME280;45945;53.350;55.922;2022-08-20T01:00:48;101402.97;;;10.90;72.52
60069;BME280;45945;53.350;55.922;2022-08-20T01:01:50;101406.41;;;10.89;72.44
60069;BME280;45945;53.350;55.922;2022-08-20T01:02:52;101402.00;;;10.88;72.55
60069;BME280;45945;53.350;55.922;2022-08-20T01:03:53;101402.66;;;10.84;72.42
60069;BME280;45945;53.350;55.922;2022-08-20T01:04:56;101402.16;;;10.91;72.12
60069;BME280;45945;53.350;55.922;2022-08-20T01:05:59;101411.03;;;10.94;72.11
60069;BME280;45945;53.350;55.922;2022-08-20T01:07:01;101404.19;;;10.78;72.33
60069;BME280;45945;53.350;55.922;2022-08-20T01:08:03;101409.19;;;10.74;73.17
60069;BME280;45945;53.350;55.922;2022-08-20T01:09:05;101418.78;;;10.55;73.49
60069;BME280;45945;53.350;55.922;2022-08-20T01:10:11;101410.28;;;10.43;73.93
60069;BME280;45945;53.350;55.922;2022-08-20T01:11:13;101407.38;;;10.37;74.13
60069;BME280;45945;53.350;55.922;2022-08-20T01:12:21;101403.00;;;10.54;73.62
60069;BME280;45945;53.350;55.922;2022-08-20T01:13:23;101407.69;;;10.79;73.20
60069;BME280;45945;53.350;55.922;2022-08-20T01:14:25;101411.81;;;10.92;72.54
60069;BME280;45945;53.350;55.922;2022-08-20T01:15:30;101405.41;;;11.05;71.91
60069;BME280;45945;53.350;55.922;2022-08-20T01:16:31;101415.00;;;10.86;72.29
60069;BME280;45945;53.350;55.922;2022-08-20T01:17:34;101414.78;;;10.81;72.88
60069;BME280;45945;53.350;55.922;2022-08-20T01:18:36;101413.00;;;10.80;72.83
60069;BME280;45945;53.350;55.922;2022-08-20T01:19:44;101409.88;;;10.70;73.15
60069;BME280;45945;53.350;55.922;2022-08-20T01:20:51;101394.38;;;10.74;72.83
60069;BME280;45945;53.350;55.922;2022-08-20T01:21:54;101409.84;;;10.88;72.27
60069;BME280;45945;53.350;55.922;2022-08-20T01:24:56;101405.06;;;10.97;71.94
60069;BME280;45945;53.350;55.922;2022-08-20T01:26:04;101412.16;;;10.99;72.43
60069;BME280;45945;53.350;55.922;2022-08-20T01:27:06;101406.56;;;10.92;71.94
60069;BME280;45945;53.350;55.922;2022-08-20T01:28:09;101408.75;;;10.82;72.63
60069;BME280;45945;53.350;55.922;2022-08-20T01:29:17;101409.19;;;10.74;73.28
60069;BME280;45945;53.350;55.922;2022-08-20T01:30:20;101409.28;;;10.75;72.88
60069;BME280;45945;53.350;55.922;2022-08-20T01:31:24;101411.38;;;10.82;72.56
60069;BME280;45945;53.350;55.922;2022-08-20T01:32:25;101417.69;;;10.88;72.97
60069;BME280;45945;53.350;55.922;2022-08-20T01:33:26;101409.19;;;10.92;72.27
60069;BME280;45945;53.350;55.922;2022-08-20T01:34:27;101411.38;;;10.82;72.86
60069;BME280;45945;53.350;55.922;2022-08-20T01:35:28;101410.16;;;10.76;73.14
60069;BME280;45945;53.350;55.922;2022-08-20T01:36:38;101413.38;;;10.70;73.71
60069;BME280;45945;53.350;55.922;2022-08-20T01:37:39;101408.19;;;10.72;73.58
60069;BME280;45945;53.350;55.922;2022-08-20T01:38:42;101400.69;;;10.78;73.59
60069;BME280;45945;53.350;55.922;2022-08-20T01:39:43;101412.63;;;10.73;73.56
60069;BME280;45945;53.350;55.922;2022-08-20T01:41:00;101407.63;;;10.77;73.72
60069;BME280;45945;53.350;55.922;2022-08-20T01:43:26;101407.75;;;10.80;73.45
60069;BME280;45945;53.350;55.922;2022-08-20T01:44:27;101406.94;;;10.81;73.70
60069;BME280;45945;53.350;55.922;2022-08-20T01:45:29;101412.75;;;10.94;72.50
60069;BME280;45945;53.350;55.922;2022-08-20T01:46:35;101410.28;;;10.97;72.84
60069;BME280;45945;53.350;55.922;2022-08-20T01:47:37;101411.72;;;10.90;72.69
60069;BME280;45945;53.350;55.922;2022-08-20T01:48:39;101415.22;;;10.91;72.48
60069;BME280;45945;53.350;55.922;2022-08-20T01:49:45;101416.03;;;10.90;72.56
60069;BME280;45945;53.350;55.922;2022-08-20T01:51:12;101412.91;;;10.97;72.69
60069;BME280;45945;53.350;55.922;2022-08-20T01:53:49;101415.44;;;10.95;72.82
60069;BME280;45945;53.350;55.922;2022-08-20T01:54:50;101415.38;;;10.94;72.61
60069;BME280;45945;53.350;55.922;2022-08-20T01:55:52;101420.00;;;10.99;72.87
60069;BME280;45945;53.350;55.922;2022-08-20T01:56:57;101421.69;;;11.17;72.27
60069;BME280;45945;53.350;55.922;2022-08-20T01:58:00;101420.06;;;11.19;72.38
60069;BME280;45945;53.350;55.922;2022-08-20T01:59:04;101421.09;;;11.23;72.51
60069;BME280;45945;53.350;55.922;2022-08-20T02:00:12;101415.88;;;11.05;73.01
60069;BME280;45945;53.350;55.922;2022-08-20T02:01:23;101420.06;;;11.19;72.13
60069;BME280;45945;53.350;55.922;2022-08-20T02:02:25;101423.50;;;11.18;72.57
60069;BME280;45945;53.350;55.922;2022-08-20T02:03:26;101419.69;;;11.11;72.75
60069;BME280;45945;53.350;55.922;2022-08-20T02:04:27;101416.72;;;11.04;73.18
60069;BME280;45945;53.350;55.922;2022-08-20T02:05:31;101417.47;;;11.01;73.24
60069;BME280;45945;53.350;55.922;2022-08-20T02:06:37;101422.25;;;11.10;73.42
60069;BME280;45945;53.350;55.922;2022-08-20T02:07:40;101426.03;;;11.16;73.32
60069;BME280;45945;53.350;55.922;2022-08-20T02:08:41;101421.63;;;11.15;73.18
60069;BME280;45945;53.350;55.922;2022-08-20T02:09:43;101422.06;;;11.25;73.04
60069;BME280;45945;53.350;55.922;2022-08-20T02:10:44;101420.88;;;11.18;73.11
60069;BME280;45945;53.350;55.922;2022-08-20T02:11:46;101417.09;;;11.11;73.03
60069;BME280;45945;53.350;55.922;2022-08-20T02:12:47;101414.69;;;11.16;73.24
60069;BME280;45945;53.350;55.922;2022-08-20T02:13:50;101416.84;;;11.25;72.58
60069;BME280;45945;53.350;55.922;2022-08-20T02:14:53;101410.34;;;11.36;72.13
60069;BME280;45945;53.350;55.922;2022-08-20T02:15:54;101410.34;;;11.36;72.06
60069;BME280;45945;53.350;55.922;2022-08-20T02:16:55;101417.06;;;11.49;71.53
60069;BME280;45945;53.350;55.922;2022-08-20T02:18:00;101417.47;;;11.58;71.19
60069;BME280;45945;53.350;55.922;2022-08-20T02:19:07;101415.00;;;11.61;71.58
60069;BME280;45945;53.350;55.922;2022-08-20T02:20:13;101408.91;;;11.62;71.68
60069;BME280;45945;53.350;55.922;2022-08-20T02:21:16;101406.00;;;11.56;71.44
60069;BME280;45945;53.350;55.922;2022-08-20T02:22:22;101410.31;;;11.54;71.86
60069;BME280;45945;53.350;55.922;2022-08-20T02:23:24;101413.81;;;11.55;71.62
60069;BME280;45945;53.350;55.922;2022-08-20T02:24:25;101408.97;;;11.64;71.32
60069;BME280;45945;53.350;55.922;2022-08-20T02:25:29;101412.03;;;11.73;71.13
60069;BME280;45945;53.350;55.922;2022-08-20T02:26:33;101411.19;;;11.74;71.14
60069;BME280;45945;53.350;55.922;2022-08-20T02:27:40;101415.00;;;11.81;71.51
60069;BME280;45945;53.350;55.922;2022-08-20T02:28:41;101408.56;;;11.74;71.55
60069;BME280;45945;53.350;55.922;2022-08-20T02:29:42;101408.97;;;11.83;70.78
60069;BME280;45945;53.350;55.922;2022-08-20T02:30:46;101412.06;;;11.93;70.06
60069;BME280;45945;53.350;55.922;2022-08-20T02:31:47;101409.94;;;11.85;70.68
60069;BME280;45945;53.350;55.922;2022-08-20T02:32:49;101416.44;;;11.94;70.98
60069;BME280;45945;53.350;55.922;2022-08-20T02:33:50;101408.09;;;12.02;70.16
60069;BME280;45945;53.350;55.922;2022-08-20T02:34:51;101413.41;;;12.04;70.34
60069;BME280;45945;53.350;55.922;2022-08-20T02:35:53;101421.25;;;12.04;70.77
60069;BME280;45945;53.350;55.922;2022-08-20T02:36:56;101411.72;;;12.06;70.62
60069;BME280;45945;53.350;55.922;2022-08-20T02:37:57;101417.28;;;12.14;70.17
60069;BME280;45945;53.350;55.922;2022-08-20T02:38:58;101416.59;;;12.18;70.09
60069;BME280;45945;53.350;55.922;2022-08-20T02:40:00;101414.97;;;12.20;70.20
60069;BME280;45945;53.350;55.922;2022-08-20T02:41:01;101415.53;;;12.34;69.64
60069;BME280;45945;53.350;55.922;2022-08-20T02:42:02;101415.47;;;12.32;70.10
60069;BME280;45945;53.350;55.922;2022-08-20T02:43:04;101420.16;;;12.39;69.16
60069;BME280;45945;53.350;55.922;2022-08-20T02:44:06;101423.66;;;12.40;69.15
60069;BME280;45945;53.350;55.922;2022-08-20T02:45:13;101414.25;;;12.45;69.11
60069;BME280;45945;53.350;55.922;2022-08-20T02:46:14;101419.44;;;12.44;68.62
60069;BME280;45945;53.350;55.922;2022-08-20T02:47:16;101419.16;;;12.58;68.48
60069;BME280;45945;53.350;55.922;2022-08-20T02:48:21;101415.66;;;12.58;67.86
60069;BME280;45945;53.350;55.922;2022-08-20T02:49:23;101425.75;;;12.70;67.14
60069;BME280;45945;53.350;55.922;2022-08-20T02:50:24;101414.09;;;12.63;67.80
60069;BME280;45945;53.350;55.922;2022-08-20T02:51:25;101422.97;;;12.65;67.48
60069;BME280;45945;53.350;55.922;2022-08-20T02:52:27;101417.03;;;12.71;67.02
60069;BME280;45945;53.350;55.922;2022-08-20T02:53:32;101419.19;;;12.81;66.96
60069;BME280;45945;53.350;55.922;2022-08-20T02:54:34;101415.69;;;12.81;66.85
60069;BME280;45945;53.350;55.922;2022-08-20T02:55:35;101421.38;;;12.91;66.72
60069;BME280;45945;53.350;55.922;2022-08-20T02:56:36;101417.84;;;12.91;66.69
60069;BME280;45945;53.350;55.922;2022-08-20T02:57:38;101421.84;;;13.04;66.05
60069;BME280;45945;53.350;55.922;2022-08-20T02:58:39;101418.09;;;12.97;66.19
60069;BME280;45945;53.350;55.922;2022-08-20T02:59:42;101421.09;;;13.06;65.62
60069;BME280;45945;53.350;55.922;2022-08-20T03:00:43;101418.22;;;13.23;64.99
60069;BME280;45945;53.350;55.922;2022-08-20T03:01:45;101421.44;;;13.38;64.92
60069;BME280;45945;53.350;55.922;2022-08-20T03:02:46;101418.72;;;13.59;64.02
60069;BME280;45945;53.350;55.922;2022-08-20T03:03:47;101417.84;;;13.83;62.89
60069;BME280;45945;53.350;55.922;2022-08-20T03:04:48;101417.81;;;14.07;62.27
60069;BME280;45945;53.350;55.922;2022-08-20T03:05:55;101416.53;;;14.22;62.14
60069;BME280;45945;53.350;55.922;2022-08-20T03:06:57;101416.19;;;14.36;61.36
60069;BME280;45945;53.350;55.922;2022-08-20T03:08:01;101401.94;;;14.57;60.21
60069;BME280;45945;53.350;55.922;2022-08-20T03:09:02;101410.38;;;14.47;61.20
60069;BME280;45945;53.350;55.922;2022-08-20T03:10:06;101410.84;;;14.88;60.37
60069;BME280;45945;53.350;55.922;2022-08-20T03:11:08;101400.28;;;15.15;58.97
60069;BME280;45945;53.350;55.922;2022-08-20T03:12:09;101412.13;;;15.30;58.62
60069;BME280;45945;53.350;55.922;2022-08-20T03:13:11;101405.50;;;15.44;57.98
60069;BME280;45945;53.350;55.922;2022-08-20T03:14:13;101404.22;;;15.60;57.71
60069;BME280;45945;53.350;55.922;2022-08-20T03:15:14;101400.44;;;15.81;57.32
60069;BME280;45945;53.350;55.922;2022-08-20T03:16:15;101397.31;;;15.95;56.72
60069;BME280;45945;53.350;55.922;2022-08-20T03:17:16;101404.25;;;16.25;56.05
60069;BME280;45945;53.350;55.922;2022-08-20T03:18:18;101407.00;;;16.30;56.14
60069;BME280;45945;53.350;55.922;2022-08-20T03:19:19;101403.50;;;16.31;56.19
60069;BME280;45945;53.350;55.922;2022-08-20T03:20:20;101399.50;;;16.47;55.61
60069;BME280;45945;53.350;55.922;2022-08-20T03:21:22;101402.25;;;16.50;55.54
60069;BME280;45945;53.350;55.922;2022-08-20T03:22:23;101402.13;;;16.82;54.57
60069;BME280;45945;53.350;55.922;2022-08-20T03:23:24;101394.53;;;16.96;54.03
60069;BME280;45945;53.350;55.922;2022-08-20T03:24:25;101398.53;;;17.18;53.57
60069;BME280;45945;53.350;55.922;2022-08-20T03:25:26;101400.44;;;17.25;53.46
60069;BME280;45945;53.350;55.922;2022-08-20T03:26:27;101403.63;;;17.50;53.43
60069;BME280;45945;53.350;55.922;2022-08-20T03:27:29;101408.38;;;17.66;52.89
60069;BME280;45945;53.350;55.922;2022-08-20T03:28:30;101392.31;;;17.59;52.54
60069;BME280;45945;53.350;55.922;2022-08-20T03:29:31;101406.25;;;17.48;52.83
60069;BME280;45945;53.350;55.922;2022-08-20T03:30:32;101407.22;;;17.53;52.83
60069;BME280;45945;53.350;55.922;2022-08-20T03:31:33;101397.22;;;17.84;52.52
60069;BME280;45945;53.350;55.922;2022-08-20T03:32:36;101405.25;;;17.87;52.10
60069;BME280;45945;53.350;55.922;2022-08-20T03:33:37;101398.25;;;17.89;51.72
60069;BME280;45945;53.350;55.922;2022-08-20T03:34:39;101410.13;;;17.67;52.32
60069;BME280;45945;53.350;55.922;2022-08-20T03:35:40;101412.47;;;17.52;52.76
60069;BME280;45945;53.350;55.922;2022-08-20T03:36:41;101407.16;;;17.50;53.03
60069;BME280;45945;53.350;55.922;2022-08-20T03:37:42;101408.94;;;17.94;52.21
60069;BME280;45945;53.350;55.922;2022-08-20T03:38:44;101412.47;;;17.96;51.98
60069;BME280;45945;53.350;55.922;2022-08-20T03:39:45;101394.97;;;18.03;52.79
60069;BME280;45945;53.350;55.922;2022-08-20T03:40:47;101402.56;;;18.33;51.99
60069;BME280;45945;53.350;55.922;2022-08-20T03:41:48;101403.34;;;18.28;51.63
60069;BME280;45945;53.350;55.922;2022-08-20T03:42:49;101403.50;;;17.88;52.58
60069;BME280;45945;53.350;55.922;2022-08-20T03:43:52;101398.31;;;18.43;51.89
60069;BME280;45945;53.350;55.922;2022-08-20T03:45:12;101404.28;;;17.84;51.95
60069;BME280;45945;53.350;55.922;2022-08-20T03:46:13;101410.69;;;17.94;52.18
60069;BME280;45945;53.350;55.922;2022-08-20T03:47:14;101400.00;;;18.38;51.37
60069;BME280;45945;53.350;55.922;2022-08-20T03:48:17;101397.53;;;18.50;50.60
60069;BME280;45945;53.350;55.922;2022-08-20T03:49:19;101406.84;;;18.80;50.22
60069;BME280;45945;53.350;55.922;2022-08-20T03:50:22;101407.19;;;19.02;49.46
60069;BME280;45945;53.350;55.922;2022-08-20T03:51:24;101406.72;;;19.34;49.16
60069;BME280;45945;53.350;55.922;2022-08-20T03:52:25;101405.38;;;18.99;48.71
60069;BME280;45945;53.350;55.922;2022-08-20T03:53:29;101411.03;;;18.66;49.79
60069;BME280;45945;53.350;55.922;2022-08-20T03:54:31;101408.91;;;18.97;49.47
60069;BME280;45945;53.350;55.922;2022-08-20T03:55:32;101398.56;;;19.17;48.87
60069;BME280;45945;53.350;55.922;2022-08-20T03:56:33;101406.47;;;19.13;48.84
60069;BME280;45945;53.350;55.922;2022-08-20T03:57:34;101415.56;;;19.33;48.47
60069;BME280;45945;53.350;55.922;2022-08-20T03:58:35;101397.63;;;19.11;48.63
60069;BME280;45945;53.350;55.922;2022-08-20T03:59:36;101402.31;;;19.31;48.33
60069;BME280;45945;53.350;55.922;2022-08-20T04:00:49;101409.44;;;19.38;48.60
60069;BME280;45945;53.350;55.922;2022-08-20T04:01:51;101412.25;;;19.49;48.21
60069;BME280;45945;53.350;55.922;2022-08-20T04:02:52;101410.50;;;19.51;47.81
60069;BME280;45945;53.350;55.922;2022-08-20T04:03:53;101407.44;;;19.92;47.91
60069;BME280;45945;53.350;55.922;2022-08-20T04:04:54;101414.56;;;19.95;47.89
60069;BME280;45945;53.350;55.922;2022-08-20T04:05:55;101413.91;;;19.42;48.26
60069;BME280;45945;53.350;55.922;2022-08-20T04:06:56;101422.44;;;19.87;47.62
60069;BME280;45945;53.350;55.922;2022-08-20T04:07:59;101408.41;;;19.99;47.32
60069;BME280;45945;53.350;55.922;2022-08-20T04:09:00;101417.13;;;19.86;47.62
60069;BME280;45945;53.350;55.922;2022-08-20T04:10:05;101415.72;;;20.22;46.83
60069;BME280;45945;53.350;55.922;2022-08-20T04:11:07;101421.22;;;20.42;46.03
60069;BME280;45945;53.350;55.922;2022-08-20T04:12:08;101412.16;;;20.21;46.39
60069;BME280;45945;53.350;55.922;2022-08-20T04:13:13;101408.44;;;20.00;47.21
60069;BME280;45945;53.350;55.922;2022-08-20T04:14:15;101412.78;;;19.95;47.71
60069;BME280;45945;53.350;55.922;2022-08-20T04:15:17;101416.28;;;19.93;47.30
60069;BME280;45945;53.350;55.922;2022-08-20T04:16:18;101413.63;;;19.93;47.32
60069;BME280;45945;53.350;55.922;2022-08-20T04:17:19;101401.59;;;20.27;46.84
60069;BME280;45945;53.350;55.922;2022-08-20T04:18:22;101400.94;;;20.56;46.38
60069;BME280;45945;53.350;55.922;2022-08-20T04:19:23;101402.09;;;20.87;46.38
60069;BME280;45945;53.350;55.922;2022-08-20T04:20:25;101401.72;;;20.40;46.27
60069;BME280;45945;53.350;55.922;2022-08-20T04:21:26;101396.50;;;20.52;45.97
60069;BME280;45945;53.350;55.922;2022-08-20T04:22:27;101406.69;;;21.19;44.61
60069;BME280;45945;53.350;55.922;2022-08-20T04:23:28;101402.41;;;21.48;44.50
60069;BME280;45945;53.350;55.922;2022-08-20T04:24:31;101402.13;;;20.95;45.55
60069;BME280;45945;53.350;55.922;2022-08-20T04:25:33;101405.56;;;20.77;45.66
60069;BME280;45945;53.350;55.922;2022-08-20T04:26:34;101396.03;;;21.16;45.10
60069;BME280;45945;53.350;55.922;2022-08-20T04:27:37;101402.38;;;21.43;44.90
60069;BME280;45945;53.350;55.922;2022-08-20T04:28:38;101406.09;;;21.79;43.63
60069;BME280;45945;53.350;55.922;2022-08-20T04:29:40;101405.25;;;22.03;42.97
60069;BME280;45945;53.350;55.922;2022-08-20T04:30:43;101409.59;;;21.69;42.92
60069;BME280;45945;53.350;55.922;2022-08-20T04:31:43;101392.41;;;20.94;44.30
60069;BME280;45945;53.350;55.922;2022-08-20T04:32:45;101394.66;;;20.45;45.13
60069;BME280;45945;53.350;55.922;2022-08-20T04:33:46;101399.88;;;20.31;45.88
60069;BME280;45945;53.350;55.922;2022-08-20T04:34:47;101400.38;;;20.93;44.77
60069;BME280;45945;53.350;55.922;2022-08-20T04:35:52;101398.66;;;21.07;44.82
60069;BME280;45945;53.350;55.922;2022-08-20T04:36:53;101404.81;;;21.03;44.16
60069;BME280;45945;53.350;55.922;2022-08-20T04:38:06;101396.91;;;21.08;44.39
60069;BME280;45945;53.350;55.922;2022-08-20T04:39:07;101395.34;;;21.53;43.83
60069;BME280;45945;53.350;55.922;2022-08-20T04:40:11;101402.47;;;21.57;43.63
60069;BME280;45945;53.350;55.922;2022-08-20T04:41:31;101394.56;;;21.80;42.99
60069;BME280;45945;53.350;55.922;2022-08-20T04:42:37;101392.81;;;21.96;42.63
60069;BME280;45945;53.350;55.922;2022-08-20T04:43:38;101387.47;;;21.82;42.72
60069;BME280;45945;53.350;55.922;2022-08-20T04:44:39;101390.13;;;21.85;42.86
60069;BME280;45945;53.350;55.922;2022-08-20T04:45:40;101394.50;;;21.72;43.09
60069;BME280;45945;53.350;55.922;2022-08-20T04:46:42;101388.28;;;21.58;42.94
60069;BME280;45945;53.350;55.922;2022-08-20T04:47:43;101390.72;;;21.18;44.01
60069;BME280;45945;53.350;55.922;2022-08-20T04:48:44;101394.59;;;21.92;43.46
60069;BME280;45945;53.350;55.922;2022-08-20T04:49:45;101387.50;;;22.21;42.88
60069;BME280;45945;53.350;55.922;2022-08-20T04:50:46;101388.44;;;22.47;42.45
60069;BME280;45945;53.350;55.922;2022-08-20T04:51:47;101392.88;;;22.33;42.07
60069;BME280;45945;53.350;55.922;2022-08-20T04:52:48;101394.63;;;22.73;42.65
60069;BME280;45945;53.350;55.922;2022-08-20T04:53:50;101391.06;;;22.26;42.20
60069;BME280;45945;53.350;55.922;2022-08-20T04:54:53;101391.09;;;22.41;42.68
60069;BME280;45945;53.350;55.922;2022-08-20T04:55:58;101389.25;;;22.94;41.47
60069;BME280;45945;53.350;55.922;2022-08-20T04:56:59;101388.41;;;22.60;41.87
60069;BME280;45945;53.350;55.922;2022-08-20T04:58:04;101398.13;;;23.04;41.47
60069;BME280;45945;53.350;55.922;2022-08-20T04:59:06;101391.03;;;22.97;41.27
60069;BME280;45945;53.350;55.922;2022-08-20T05:00:12;101397.97;;;23.50;40.70
60069;BME280;45945;53.350;55.922;2022-08-20T05:01:15;101396.25;;;23.42;40.88
60069;BME280;45945;53.350;55.922;2022-08-20T05:02:17;101397.22;;;23.13;41.49
60069;BME280;45945;53.350;55.922;2022-08-20T05:03:19;101392.75;;;23.26;41.24
60069;BME280;45945;53.350;55.922;2022-08-20T05:04:19;101389.84;;;23.77;40.61
60069;BME280;45945;53.350;55.922;2022-08-20T05:05:20;101388.13;;;23.63;40.87
60069;BME280;45945;53.350;55.922;2022-08-20T05:06:24;101392.44;;;23.94;40.16
60069;BME280;45945;53.350;55.922;2022-08-20T05:07:26;101395.25;;;23.63;40.45
60069;BME280;45945;53.350;55.922;2022-08-20T05:08:27;101388.38;;;22.95;41.60
60069;BME280;45945;53.350;55.922;2022-08-20T05:09:29;101392.00;;;22.57;42.26
60069;BME280;45945;53.350;55.922;2022-08-20T05:10:32;101401.63;;;23.23;41.22
60069;BME280;45945;53.350;55.922;2022-08-20T05:11:34;101390.78;;;23.65;40.61
60069;BME280;45945;53.350;55.922;2022-08-20T05:12:35;101402.41;;;23.51;40.84
60069;BME280;45945;53.350;55.922;2022-08-20T05:13:36;101400.72;;;23.29;40.66
60069;BME280;45945;53.350;55.922;2022-08-20T05:14:37;101397.91;;;23.64;40.70
60069;BME280;45945;53.350;55.922;2022-08-20T05:15:39;101396.97;;;23.71;40.65
60069;BME280;45945;53.350;55.922;2022-08-20T05:16:40;101390.50;;;24.16;40.01
60069;BME280;45945;53.350;55.922;2022-08-20T05:17:42;101386.59;;;24.55;38.36
60069;BME280;45945;53.350;55.922;2022-08-20T05:18:44;101388.06;;;24.89;38.75
60069;BME280;45945;53.350;55.922;2022-08-20T05:19:46;101389.25;;;24.62;38.46
60069;BME280;45945;53.350;55.922;2022-08-20T05:20:47;101391.06;;;24.53;39.04
60069;BME280;45945;53.350;55.922;2022-08-20T05:21:49;101390.28;;;24.42;38.87
60069;BME280;45945;53.350;55.922;2022-08-20T05:22:53;101386.75;;;24.40;39.02
60069;BME280;45945;53.350;55.922;2022-08-20T05:23:55;101392.63;;;23.50;40.24
60069;BME280;45945;53.350;55.922;2022-08-20T05:24:56;101385.16;;;24.16;39.79
60069;BME280;45945;53.350;55.922;2022-08-20T05:25:59;101393.16;;;24.19;39.41
60069;BME280;45945;53.350;55.922;2022-08-20T05:27:00;101381.50;;;24.24;39.16
60069;BME280;45945;53.350;55.922;2022-08-20T05:28:05;101382.09;;;24.61;39.05
60069;BME280;45945;53.350;55.922;2022-08-20T05:29:09;101384.00;;;24.48;39.53